Time;durP1;ratioP1;P1;durP2;ratioP2;P2;SDS_P1;SDS_P2;PMS_P1;PMS_P2;Temp;Humidity;BMP_temperature;BMP_pressure;BME280_temperature;BME280_humidity;BME280_pressure;Samples;Min_cycle;Max_cycle;Signal;HPM_P1;HPM_P2
2022/08/13 00:01:21;;;;;;;8.48;4.88;;;17.60;99.90;;;;;;5106149;28;20040;-63
2022/08/13 00:03:48;;;;;;;8.82;4.82;;;17.60;99.90;;;;;;5086554;28;20055;-63
2022/08/13 00:06:15;;;;;;;8.68;4.38;;;17.50;99.90;;;;;;5066612;28;20044;-64
2022/08/13 00:08:40;;;;;;;6.32;4.20;;;17.50;99.90;;;;;;5096453;28;20059;-64
2022/08/13 00:12:56;;;;;;;6.97;4.30;;;17.40;99.90;;;;;;5085164;28;20036;-64
2022/08/13 00:13:55;;;;;;;7.40;4.25;;;17.20;99.90;;;;;;5103891;28;20044;-64
2022/08/13 00:16:20;;;;;;;8.27;4.47;;;17.10;99.90;;;;;;5086584;28;20104;-64
2022/08/13 00:18:46;;;;;;;8.00;4.75;;;17.10;99.90;;;;;;5100614;28;20068;-64
2022/08/13 00:21:12;;;;;;;5.45;4.03;;;17.00;99.90;;;;;;5083054;28;20102;-63
2022/08/13 00:23:38;;;;;;;7.28;3.88;;;17.00;99.90;;;;;;5080584;28;20083;-63
2022/08/13 00:26:04;;;;;;;4.82;4.32;;;17.00;99.90;;;;;;5077208;28;20037;-64
2022/08/13 00:28:29;;;;;;;5.82;5.00;;;16.90;99.90;;;;;;5078516;28;20079;-63
2022/08/13 00:30:58;;;;;;;5.43;4.28;;;16.90;99.90;;;;;;5084321;28;20036;-64
2022/08/13 00:33:24;;;;;;;8.27;4.70;;;16.90;99.90;;;;;;5090253;28;20044;-63
2022/08/13 00:35:52;;;;;;;7.15;4.30;;;16.80;99.90;;;;;;5102838;28;20051;-64
2022/08/13 00:38:22;;;;;;;8.40;4.90;;;16.80;99.90;;;;;;5078068;28;20603;-64
2022/08/13 00:40:51;;;;;;;7.65;4.25;;;16.80;99.90;;;;;;5103640;28;20537;-64
2022/08/13 00:43:17;;;;;;;12.40;4.82;;;16.70;99.90;;;;;;5086197;28;20048;-63
2022/08/13 00:45:43;;;;;;;9.32;4.82;;;16.70;99.90;;;;;;5086702;28;20098;-64
2022/08/13 00:50:56;;;;;;;6.32;4.40;;;16.60;99.90;;;;;;5073741;28;20055;-63
2022/08/13 00:53:23;;;;;;;8.40;4.85;;;16.60;99.90;;;;;;5072411;28;20486;-63
2022/08/13 00:55:55;;;;;;;7.20;4.50;;;16.60;99.90;;;;;;5085819;28;20101;-63
2022/08/13 00:58:22;;;;;;;5.93;4.95;;;16.60;99.90;;;;;;5085066;28;20059;-63
2022/08/13 01:00:56;;;;;;;6.32;4.60;;;16.50;99.90;;;;;;5104780;28;20419;-63
2022/08/13 01:03:23;;;;;;;5.68;4.45;;;16.50;99.90;;;;;;5085207;28;20052;-63
2022/08/13 01:05:49;;;;;;;6.82;4.72;;;16.50;99.90;;;;;;5079991;28;20051;-64
2022/08/13 01:08:17;;;;;;;7.47;4.38;;;16.40;99.90;;;;;;5084734;28;20056;-64
2022/08/13 01:10:45;;;;;;;8.05;5.10;;;16.40;99.90;;;;;;5080682;28;20599;-64
2022/08/13 01:13:13;;;;;;;9.90;5.57;;;16.40;99.90;;;;;;5083235;28;20048;-63
2022/08/13 01:15:41;;;;;;;8.35;5.28;;;16.30;99.90;;;;;;5094971;28;20124;-63
2022/08/13 01:18:08;;;;;;;9.73;5.32;;;16.30;99.90;;;;;;5085526;28;20075;-64
2022/08/13 01:20:44;;;;;;;8.60;6.57;;;16.30;99.90;;;;;;5103915;28;20059;-64
2022/08/13 01:23:10;;;;;;;9.35;6.05;;;16.30;99.90;;;;;;5083474;28;20059;-64
2022/08/13 01:25:37;;;;;;;8.10;5.88;;;16.20;99.90;;;;;;5085134;28;20047;-64
2022/08/13 01:28:03;;;;;;;7.38;6.57;;;16.10;99.90;;;;;;5102270;28;20036;-64
2022/08/13 01:30:31;;;;;;;12.95;5.60;;;16.10;99.90;;;;;;5091336;28;20085;-64
2022/08/13 01:32:56;;;;;;;8.77;5.50;;;16.00;99.90;;;;;;5072853;28;20094;-63
2022/08/13 01:35:23;;;;;;;8.48;5.47;;;16.10;99.90;;;;;;5085303;28;20040;-64
2022/08/13 01:37:53;;;;;;;7.95;6.38;;;16.00;99.90;;;;;;5100378;28;20094;-64
2022/08/13 01:40:19;;;;;;;7.88;5.80;;;16.00;99.90;;;;;;5085337;28;20047;-63
2022/08/13 01:42:47;;;;;;;7.07;6.38;;;16.10;99.90;;;;;;5073628;28;20516;-63
2022/08/13 01:45:14;;;;;;;7.15;5.18;;;16.00;99.90;;;;;;5084401;28;20484;-63
2022/08/13 01:50:29;;;;;;;9.38;6.47;;;16.00;99.90;;;;;;5066734;28;20131;-63
2022/08/13 01:53:01;;;;;;;;;;;16.00;99.90;;;;;;5079450;28;20397;-64
2022/08/13 01:55:39;;;;;;;6.00;5.10;;;15.90;99.90;;;;;;5099152;28;19919;-64
2022/08/13 01:58:17;;;;;;;6.82;5.10;;;15.80;99.90;;;;;;5068147;28;20040;-63
2022/08/13 02:00:45;;;;;;;8.82;5.53;;;15.80;99.90;;;;;;5080154;28;20488;-63
2022/08/13 02:03:12;;;;;;;8.15;6.28;;;15.80;99.90;;;;;;5102753;28;20264;-64
2022/08/13 02:05:39;;;;;;;6.57;4.90;;;15.70;99.90;;;;;;5100015;28;20047;-63
2022/08/13 02:08:06;;;;;;;8.88;5.60;;;15.70;99.90;;;;;;5103793;28;20044;-63
2022/08/13 02:10:33;;;;;;;8.07;6.25;;;15.70;99.90;;;;;;5101082;28;20040;-63
2022/08/13 02:12:59;;;;;;;7.07;6.38;;;15.60;99.90;;;;;;5101596;28;20491;-63
2022/08/13 02:15:25;;;;;;;6.95;5.20;;;15.50;99.90;;;;;;5082026;28;20056;-64
2022/08/13 02:17:50;;;;;;;7.68;6.32;;;15.40;99.90;;;;;;5078913;28;20044;-63
2022/08/13 02:20:17;;;;;;;9.13;6.68;;;15.40;99.90;;;;;;5073961;28;20052;-63
2022/08/13 02:22:47;;;;;;;12.63;6.22;;;15.40;99.90;;;;;;5083946;28;20044;-63
2022/08/13 02:25:16;;;;;;;10.77;6.13;;;15.30;99.90;;;;;;5077998;28;20052;-63
2022/08/13 02:27:42;;;;;;;9.57;6.88;;;15.30;99.90;;;;;;5085237;28;20048;-63
2022/08/13 02:30:10;;;;;;;8.95;6.60;;;15.30;99.90;;;;;;5081547;28;20061;-64
2022/08/13 02:32:38;;;;;;;6.43;5.82;;;15.20;99.90;;;;;;5079631;28;20054;-63
2022/08/13 02:35:04;;;;;;;9.35;6.60;;;15.20;99.90;;;;;;5083215;28;20043;-63
2022/08/13 02:37:32;;;;;;;7.75;5.68;;;15.20;99.90;;;;;;5101208;28;20052;-65
2022/08/13 02:39:59;;;;;;;10.18;7.18;;;15.30;99.90;;;;;;5101497;28;20040;-63
2022/08/13 02:42:31;;;;;;;7.65;6.85;;;15.30;99.90;;;;;;5102832;28;20055;-63
2022/08/13 02:44:57;;;;;;;9.65;6.70;;;15.30;99.90;;;;;;5066288;28;20055;-64
2022/08/13 02:47:24;;;;;;;7.68;6.70;;;15.30;99.90;;;;;;5071922;28;20063;-63
2022/08/13 02:49:51;;;;;;;9.65;7.35;;;15.20;99.90;;;;;;5080059;28;20070;-63
2022/08/13 02:52:19;;;;;;;10.40;7.10;;;15.20;99.90;;;;;;5059806;28;20049;-63
2022/08/13 02:54:47;;;;;;;8.25;7.32;;;15.20;99.90;;;;;;5084098;28;20078;-63
2022/08/13 02:57:13;;;;;;;8.02;6.32;;;15.20;99.90;;;;;;5083666;28;20048;-63
2022/08/13 02:59:41;;;;;;;7.95;7.05;;;15.20;99.90;;;;;;5096423;28;20032;-64
2022/08/13 03:02:08;;;;;;;7.85;6.65;;;15.20;99.90;;;;;;5086180;28;20040;-63
2022/08/13 03:04:34;;;;;;;9.13;6.78;;;15.20;99.90;;;;;;5082430;28;20067;-63
2022/08/13 03:07:02;;;;;;;7.13;6.43;;;15.20;99.90;;;;;;5106547;28;20048;-63
2022/08/13 03:09:29;;;;;;;7.32;6.15;;;15.10;99.90;;;;;;5088311;28;20082;-63
2022/08/13 03:11:59;;;;;;;8.02;6.53;;;15.00;99.90;;;;;;5086417;28;20044;-63
2022/08/13 03:14:28;;;;;;;8.07;6.43;;;15.00;99.90;;;;;;5105654;28;20040;-63
2022/08/13 03:16:54;;;;;;;9.57;6.93;;;14.90;99.90;;;;;;5086576;28;20108;-63
2022/08/13 03:19:21;;;;;;;8.73;7.15;;;14.80;99.90;;;;;;5082503;28;20044;-63
2022/08/13 03:21:49;;;;;;;11.10;7.32;;;14.80;99.90;;;;;;5086808;28;20051;-63
2022/08/13 03:24:17;;;;;;;9.13;6.38;;;14.80;99.90;;;;;;5083835;28;20699;-63
2022/08/13 03:26:44;;;;;;;8.15;7.20;;;14.70;99.90;;;;;;5081323;28;20048;-63
2022/08/13 03:29:10;;;;;;;7.90;7.00;;;14.60;99.90;;;;;;5102805;28;20052;-63
2022/08/13 03:31:37;;;;;;;10.18;8.07;;;14.60;99.90;;;;;;5085127;28;20049;-63
2022/08/13 03:34:04;;;;;;;10.98;7.30;;;14.60;99.90;;;;;;5092120;28;20044;-63
2022/08/13 03:36:31;;;;;;;7.40;6.70;;;14.60;99.90;;;;;;5104637;28;20159;-63
2022/08/13 03:38:59;;;;;;;11.52;8.00;;;14.60;99.90;;;;;;5103215;28;20332;-63
2022/08/13 03:41:25;;;;;;;14.40;8.43;;;14.60;99.90;;;;;;5106509;28;20043;-63
2022/08/13 03:43:53;;;;;;;8.90;7.68;;;14.60;99.90;;;;;;5102158;28;20048;-63
2022/08/13 03:46:23;;;;;;;11.40;7.05;;;14.60;99.90;;;;;;5106617;28;20092;-63
2022/08/13 03:48:49;;;;;;;9.70;8.02;;;14.50;99.90;;;;;;5102002;28;20033;-63
2022/08/13 03:51:19;;;;;;;9.18;8.20;;;14.50;99.90;;;;;;5075884;28;20056;-63
2022/08/13 03:53:45;;;;;;;10.10;9.05;;;14.50;99.90;;;;;;5081403;28;20056;-63
2022/08/13 03:56:13;;;;;;;11.23;8.90;;;14.50;99.90;;;;;;5106207;28;20044;-63
2022/08/13 03:58:39;;;;;;;10.95;9.02;;;14.60;99.90;;;;;;5087695;28;20044;-63
2022/08/13 04:01:05;;;;;;;14.18;9.15;;;14.50;99.90;;;;;;5083283;28;20075;-63
2022/08/13 04:03:37;;;;;;;12.98;10.10;;;14.50;99.90;;;;;;5095465;28;20051;-63
2022/08/13 04:06:19;;;;;;;10.32;8.90;;;14.60;99.90;;;;;;5087766;28;20047;-63
2022/08/13 04:08:47;;;;;;;10.27;9.18;;;14.50;99.90;;;;;;5086556;28;20044;-63
2022/08/13 04:11:17;;;;;;;10.38;8.98;;;14.60;99.90;;;;;;5105761;28;20044;-63
2022/08/13 04:13:44;;;;;;;9.80;7.40;;;14.50;99.90;;;;;;5077727;28;20625;-63
2022/08/13 04:16:12;;;;;;;10.52;8.23;;;14.50;99.90;;;;;;5106095;28;20067;-63
2022/08/13 04:18:39;;;;;;;9.07;8.18;;;14.50;99.90;;;;;;5084407;28;20077;-63
2022/08/13 04:21:08;;;;;;;12.48;8.00;;;14.40;99.90;;;;;;5102829;28;20044;-63
2022/08/13 04:23:36;;;;;;;12.20;8.88;;;14.30;99.90;;;;;;5083530;28;20076;-63
2022/08/13 04:26:02;;;;;;;9.90;8.68;;;14.30;99.90;;;;;;5084821;28;20078;-63
2022/08/13 04:28:27;;;;;;;11.25;8.45;;;14.30;99.90;;;;;;5096879;28;20520;-63
2022/08/13 04:30:53;;;;;;;10.70;8.93;;;14.30;99.90;;;;;;5096390;28;20104;-63
2022/08/13 04:33:20;;;;;;;11.23;8.60;;;14.30;99.90;;;;;;5097268;28;20083;-63
2022/08/13 04:35:46;;;;;;;9.65;8.60;;;14.30;99.90;;;;;;5057815;28;20051;-63
2022/08/13 04:38:13;;;;;;;11.30;9.23;;;14.40;99.90;;;;;;5085973;28;20060;-63
2022/08/13 04:40:41;;;;;;;11.60;8.98;;;14.40;99.90;;;;;;5086906;28;20516;-63
2022/08/13 04:43:09;;;;;;;9.90;8.35;;;14.40;99.90;;;;;;5102181;28;20078;-63
2022/08/13 04:45:36;;;;;;;12.60;8.95;;;14.40;99.90;;;;;;5085473;28;20036;-63
2022/08/13 04:48:07;;;;;;;13.02;8.40;;;14.40;99.90;;;;;;5087362;28;20086;-63
2022/08/13 04:50:34;;;;;;;10.93;7.85;;;14.40;99.90;;;;;;5079639;28;20400;-63
2022/08/13 04:53:01;;;;;;;9.95;8.15;;;14.30;99.90;;;;;;5085838;28;20044;-63
2022/08/13 04:55:28;;;;;;;9.73;8.25;;;14.40;99.90;;;;;;5099866;28;20058;-63
2022/08/13 04:57:54;;;;;;;10.80;9.60;;;14.30;99.90;;;;;;5102853;28;20036;-64
2022/08/13 05:00:23;;;;;;;10.85;9.18;;;14.40;99.90;;;;;;5102995;28;20055;-64
2022/08/13 05:02:48;;;;;;;10.32;9.32;;;14.50;99.90;;;;;;5082245;28;20489;-64
2022/08/13 05:05:14;;;;;;;12.02;10.30;;;14.60;99.90;;;;;;5075155;28;20099;-64
2022/08/13 05:07:45;;;;;;;10.88;9.75;;;14.70;99.90;;;;;;5057985;28;20040;-64
2022/08/13 05:10:10;;;;;;;10.68;9.48;;;14.80;99.90;;;;;;5096923;28;20047;-64
2022/08/13 05:12:37;;;;;;;12.15;10.80;;;14.90;99.90;;;;;;5085235;28;20072;-64
2022/08/13 05:15:06;;;;;;;10.32;9.02;;;15.00;99.90;;;;;;5083101;28;20489;-64
2022/08/13 05:17:32;;;;;;;12.18;10.20;;;15.10;99.90;;;;;;5084064;28;20048;-64
2022/08/13 05:19:59;;;;;;;11.35;9.25;;;15.20;99.90;;;;;;5083877;28;20052;-64
2022/08/13 05:22:26;;;;;;;13.93;9.98;;;15.30;99.90;;;;;;5081379;28;20046;-64
2022/08/13 05:24:52;;;;;;;10.60;9.60;;;15.40;99.90;;;;;;5083022;28;20466;-64
2022/08/13 05:27:18;;;;;;;14.95;10.10;;;15.40;99.90;;;;;;5085423;28;20040;-64
2022/08/13 05:29:44;;;;;;;15.38;9.73;;;15.50;99.90;;;;;;5069700;28;20052;-64
2022/08/13 05:32:10;;;;;;;21.92;10.65;;;15.60;99.90;;;;;;5084928;28;20086;-64
2022/08/13 05:34:37;;;;;;;14.48;10.98;;;15.70;99.90;;;;;;5105245;28;20090;-64
2022/08/13 05:37:06;;;;;;;13.50;10.73;;;15.80;99.90;;;;;;5096256;28;20044;-64
2022/08/13 05:39:32;;;;;;;11.20;10.10;;;15.90;99.90;;;;;;5057805;28;20085;-64
2022/08/13 05:41:58;;;;;;;14.65;11.13;;;16.00;99.90;;;;;;5083011;28;20055;-64
2022/08/13 05:44:24;;;;;;;12.13;10.82;;;16.10;99.90;;;;;;5100673;28;20097;-63
2022/08/13 05:46:50;;;;;;;15.15;11.90;;;16.20;99.90;;;;;;5085484;28;20583;-64
2022/08/13 05:49:16;;;;;;;13.98;11.23;;;16.40;99.90;;;;;;5083885;28;20051;-64
2022/08/13 05:51:44;;;;;;;11.90;10.60;;;16.50;99.90;;;;;;5103318;28;20039;-64
2022/08/13 05:54:11;;;;;;;14.25;11.32;;;16.60;99.90;;;;;;5078453;28;20067;-64
2022/08/13 05:56:38;;;;;;;12.93;11.60;;;16.70;99.90;;;;;;5077325;28;20044;-64
2022/08/13 05:59:05;;;;;;;11.82;10.63;;;16.70;99.90;;;;;;5101887;28;20142;-64
2022/08/13 06:04:18;;;;;;;14.07;11.30;;;16.90;99.90;;;;;;5099488;28;20063;-64
2022/08/13 06:06:44;;;;;;;14.18;10.57;;;17.00;99.90;;;;;;5080754;28;20051;-64
2022/08/13 06:09:10;;;;;;;12.38;10.70;;;17.10;99.90;;;;;;5056788;28;20056;-64
2022/08/13 06:11:40;;;;;;;11.27;10.10;;;17.20;99.90;;;;;;5073537;28;20076;-64
2022/08/13 06:14:06;;;;;;;12.50;10.65;;;17.30;99.90;;;;;;5079673;28;20127;-64
2022/08/13 06:16:33;;;;;;;11.57;9.52;;;17.40;99.90;;;;;;5092157;28;20043;-64
2022/08/13 06:18:59;;;;;;;13.63;10.85;;;17.40;99.90;;;;;;5084302;28;20405;-64
2022/08/13 06:21:26;;;;;;;12.82;10.85;;;17.50;99.90;;;;;;5101390;28;20404;-64
2022/08/13 06:23:53;;;;;;;13.57;10.90;;;17.70;99.90;;;;;;5083028;28;20044;-64
2022/08/13 06:26:21;;;;;;;15.70;9.73;;;17.70;99.90;;;;;;5079777;28;20433;-64
2022/08/13 06:28:52;;;;;;;13.55;9.52;;;17.80;99.90;;;;;;5079143;28;20099;-64
2022/08/13 06:31:25;;;;;;;11.95;9.85;;;17.90;99.90;;;;;;5079801;28;20056;-64
2022/08/13 06:33:56;;;;;;;10.43;9.32;;;18.00;99.90;;;;;;5074585;28;20067;-64
2022/08/13 06:36:25;;;;;;;10.90;8.13;;;18.10;99.90;;;;;;5073658;28;20048;-64
2022/08/13 06:38:53;;;;;;;12.57;9.10;;;18.20;99.90;;;;;;5066882;28;20060;-64
2022/08/13 06:41:21;;;;;;;13.43;10.20;;;18.20;99.90;;;;;;5105380;28;20032;-64
2022/08/13 06:43:50;;;;;;;10.02;8.90;;;18.30;99.90;;;;;;5089881;28;20052;-64
2022/08/13 06:46:22;;;;;;;9.48;8.45;;;18.40;99.90;;;;;;5089033;28;20083;-64
2022/08/13 06:48:49;;;;;;;12.65;8.85;;;18.50;99.90;;;;;;5076109;28;20056;-64
2022/08/13 06:51:15;;;;;;;11.35;8.88;;;18.60;99.90;;;;;;5095269;28;20040;-64
2022/08/13 06:53:43;;;;;;;10.32;9.20;;;18.70;99.90;;;;;;5085916;28;20058;-64
2022/08/13 06:56:16;;;;;;;9.80;8.20;;;18.80;99.90;;;;;;5087797;28;20051;-64
2022/08/13 06:58:43;;;;;;;10.70;7.82;;;18.90;99.90;;;;;;5089072;28;20051;-64
2022/08/13 07:01:09;;;;;;;10.18;7.43;;;19.00;99.90;;;;;;5084646;28;20059;-64
2022/08/13 07:03:37;;;;;;;7.00;6.07;;;19.00;99.90;;;;;;5062947;28;20100;-64
2022/08/13 07:06:03;;;;;;;9.73;6.68;;;19.10;99.90;;;;;;5103322;28;20044;-64
2022/08/13 07:08:30;;;;;;;8.50;6.43;;;19.30;99.90;;;;;;5101156;28;20040;-64
2022/08/13 07:11:32;;;;;;;10.23;5.75;;;19.30;99.90;;;;;;5084231;28;20075;-64
2022/08/13 07:13:58;;;;;;;6.03;5.40;;;19.40;99.90;;;;;;5081583;28;20079;-64
2022/08/13 07:16:30;;;;;;;10.10;5.20;;;19.50;99.90;;;;;;5088123;28;20080;-64
2022/08/13 07:18:58;;;;;;;8.35;5.25;;;19.60;99.90;;;;;;5088923;28;20499;-64
2022/08/13 07:21:25;;;;;;;6.97;5.32;;;19.70;99.90;;;;;;5085333;28;20059;-64
2022/08/13 07:23:53;;;;;;;9.93;4.70;;;19.70;99.90;;;;;;5102850;28;20032;-64
2022/08/13 07:26:20;;;;;;;7.13;4.75;;;19.80;99.90;;;;;;5067327;28;20043;-64
2022/08/13 07:28:49;;;;;;;6.32;4.15;;;19.90;99.90;;;;;;5100510;28;20370;-64
2022/08/13 07:31:18;;;;;;;7.40;4.60;;;20.00;99.90;;;;;;5082472;28;20064;-64
2022/08/13 07:33:49;;;;;;;5.15;4.40;;;20.10;99.90;;;;;;5105800;28;20507;-64
2022/08/13 07:36:15;;;;;;;6.75;4.70;;;20.30;99.90;;;;;;5089687;28;20040;-64
2022/08/13 07:38:44;;;;;;;7.20;4.45;;;20.40;99.90;;;;;;5083340;28;20050;-64
2022/08/13 07:41:13;;;;;;;6.45;4.35;;;20.50;99.90;;;;;;5086350;28;20048;-64
2022/08/13 07:43:43;;;;;;;7.75;4.32;;;20.60;99.90;;;;;;5087936;28;20066;-64
2022/08/13 07:46:15;;;;;;;6.88;4.03;;;20.70;99.90;;;;;;5085054;28;20518;-64
2022/08/13 07:48:52;;;;;;;6.10;3.58;;;20.80;99.90;;;;;;5097732;28;20090;-64
2022/08/13 07:51:21;;;;;;;6.05;3.50;;;20.90;99.90;;;;;;5086728;28;20092;-64
2022/08/13 07:53:50;;;;;;;5.63;3.58;;;21.10;99.90;;;;;;5105358;28;20047;-64
2022/08/13 07:56:21;;;;;;;4.57;3.30;;;21.20;99.90;;;;;;5077297;28;20497;-64
2022/08/13 07:58:47;;;;;;;5.93;3.40;;;21.30;99.90;;;;;;5101973;28;20047;-64
2022/08/13 08:01:13;;;;;;;5.28;3.40;;;21.30;99.90;;;;;;5106162;28;20099;-64
2022/08/13 08:03:45;;;;;;;6.78;3.30;;;21.40;99.90;;;;;;5085628;28;20044;-64
2022/08/13 08:06:14;;;;;;;5.88;3.47;;;21.50;99.90;;;;;;5102262;28;20044;-64
2022/08/13 08:08:42;;;;;;;4.40;3.35;;;21.50;99.90;;;;;;5082866;28;20055;-64
2022/08/13 08:11:10;;;;;;;7.40;3.10;;;21.60;99.90;;;;;;5086718;28;20063;-64
2022/08/13 08:13:39;;;;;;;5.03;3.08;;;21.70;99.90;;;;;;5105183;28;20498;-64
2022/08/13 08:16:06;;;;;;;5.80;3.17;;;21.80;99.90;;;;;;5080831;28;20061;-64
2022/08/13 08:18:33;;;;;;;4.65;2.80;;;21.90;99.90;;;;;;5086118;28;20048;-64
2022/08/13 08:21:07;;;;;;;5.20;2.90;;;22.00;99.90;;;;;;5086919;28;20055;-64
2022/08/13 08:23:35;;;;;;;5.50;2.80;;;22.20;99.90;;;;;;5074626;28;20044;-64
2022/08/13 08:26:06;;;;;;;6.57;2.55;;;22.30;99.90;;;;;;5099431;28;20069;-64
2022/08/13 08:28:33;;;;;;;7.88;2.92;;;22.40;99.90;;;;;;5076589;28;20048;-64
2022/08/13 08:31:00;;;;;;;4.45;2.72;;;22.50;99.90;;;;;;5084814;28;20520;-64
2022/08/13 08:33:26;;;;;;;3.92;2.80;;;22.60;99.90;;;;;;5087523;28;20051;-64
2022/08/13 08:35:54;;;;;;;3.40;2.75;;;22.60;99.90;;;;;;5083978;28;20054;-64
2022/08/13 08:43:53;;;;;;;4.60;2.33;;;23.00;99.90;;;;;;5097616;28;20052;-64
2022/08/13 08:46:20;;;;;;;3.40;2.40;;;23.10;99.90;;;;;;5083585;28;20037;-64
2022/08/13 08:48:47;;;;;;;3.80;2.40;;;23.20;99.90;;;;;;5093080;28;20048;-64
2022/08/13 08:51:13;;;;;;;4.93;2.58;;;23.30;99.90;;;;;;5067848;28;20045;-64
2022/08/13 08:53:44;;;;;;;6.15;2.42;;;23.30;99.90;;;;;;5099973;28;20082;-64
2022/08/13 08:56:11;;;;;;;4.75;2.25;;;23.40;99.90;;;;;;5082194;28;20048;-64
2022/08/13 08:58:41;;;;;;;3.92;2.45;;;23.50;99.90;;;;;;5068131;28;20100;-64
2022/08/13 09:01:08;;;;;;;7.63;2.45;;;23.70;99.90;;;;;;5103756;28;20036;-64
2022/08/13 09:03:39;;;;;;;3.47;2.30;;;23.80;99.90;;;;;;5103089;28;20036;-64
2022/08/13 09:06:08;;;;;;;3.45;2.47;;;23.90;99.40;;;;;;5099288;28;20044;-64
2022/08/13 09:08:35;;;;;;;4.07;2.08;;;24.00;98.80;;;;;;5092473;28;20113;-64
2022/08/13 09:11:02;;;;;;;3.25;2.22;;;24.00;98.90;;;;;;5082317;28;20044;-64
2022/08/13 09:13:29;;;;;;;4.93;2.38;;;24.10;98.50;;;;;;5085320;28;20123;-64
2022/08/13 09:15:57;;;;;;;4.63;2.22;;;24.20;98.20;;;;;;5069624;28;20076;-64
2022/08/13 09:18:23;;;;;;;3.45;2.28;;;24.20;98.10;;;;;;5100634;28;20063;-64
2022/08/13 09:20:51;;;;;;;3.40;2.20;;;24.30;97.70;;;;;;5077040;28;20439;-64
2022/08/13 09:23:17;;;;;;;3.95;2.30;;;24.40;97.80;;;;;;5093890;28;20069;-64
2022/08/13 09:25:48;;;;;;;6.07;2.70;;;24.40;97.70;;;;;;5097194;28;20510;-64
2022/08/13 09:28:23;;;;;;;4.60;2.30;;;24.40;97.50;;;;;;5071204;28;20052;-64
2022/08/13 09:30:50;;;;;;;6.63;2.42;;;24.60;96.90;;;;;;5083350;28;20071;-64
2022/08/13 09:33:21;;;;;;;2.35;2.10;;;24.70;96.30;;;;;;5077930;28;20558;-64
2022/08/13 09:35:49;;;;;;;5.32;2.40;;;24.80;95.40;;;;;;5104422;28;20463;-64
2022/08/13 09:38:15;;;;;;;5.28;3.03;;;24.90;95.10;;;;;;5099907;28;20055;-64
2022/08/13 09:41:20;;;;;;;4.68;2.25;;;24.90;95.50;;;;;;5078245;28;20099;-64
2022/08/13 09:43:47;;;;;;;3.38;2.20;;;25.00;94.30;;;;;;5033641;28;20511;-64
2022/08/13 09:46:15;;;;;;;3.08;2.20;;;25.10;94.40;;;;;;5071095;28;20084;-64
2022/08/13 09:48:41;;;;;;;4.75;2.25;;;25.20;93.80;;;;;;5078792;28;20036;-64
2022/08/13 09:51:13;;;;;;;3.15;2.13;;;25.30;93.60;;;;;;5094669;28;20161;-64
2022/08/13 09:53:40;;;;;;;4.80;2.35;;;25.30;93.30;;;;;;5085866;28;20052;-64
2022/08/13 09:56:06;;;;;;;5.88;2.25;;;25.30;93.10;;;;;;5076561;28;20071;-64
2022/08/13 09:58:32;;;;;;;4.47;2.22;;;25.50;93.50;;;;;;5085715;28;20047;-64
2022/08/13 10:00:58;;;;;;;3.63;1.98;;;25.80;92.60;;;;;;5104028;28;20105;-64
2022/08/13 10:03:24;;;;;;;2.13;1.92;;;25.80;92.20;;;;;;5081791;28;20476;-64
2022/08/13 10:05:51;;;;;;;3.22;2.38;;;25.90;92.30;;;;;;5094133;28;20072;-64
2022/08/13 10:08:18;;;;;;;4.07;2.20;;;26.00;91.80;;;;;;5097270;28;20086;-64
2022/08/13 10:10:45;;;;;;;3.47;2.22;;;26.10;90.90;;;;;;5086316;28;20035;-64
2022/08/13 10:13:14;;;;;;;3.08;2.03;;;26.20;91.60;;;;;;5102723;28;20071;-64
2022/08/13 10:15:41;;;;;;;3.22;2.20;;;26.20;91.30;;;;;;5078471;28;20134;-64
2022/08/13 10:18:08;;;;;;;4.00;2.17;;;26.30;90.90;;;;;;5081270;28;20044;-64
2022/08/13 10:20:40;;;;;;;3.03;2.00;;;26.40;91.00;;;;;;5083267;28;20149;-64
2022/08/13 10:23:12;;;;;;;3.00;2.20;;;26.40;90.80;;;;;;5086218;28;20040;-64
2022/08/13 10:25:38;;;;;;;4.68;2.35;;;26.50;89.50;;;;;;5081599;28;20112;-64
2022/08/13 10:28:24;;;;;;;3.13;2.08;;;26.50;90.00;;;;;;5085099;28;20069;-64
2022/08/13 10:30:50;;;;;;;2.30;2.10;;;26.50;90.10;;;;;;5091338;28;20057;-64
2022/08/13 10:33:17;;;;;;;3.97;2.15;;;26.60;90.00;;;;;;5058707;28;20042;-64
2022/08/13 10:35:52;;;;;;;4.50;2.58;;;26.70;90.10;;;;;;5062145;28;20378;-64
2022/08/13 10:38:19;;;;;;;2.40;2.20;;;26.70;89.40;;;;;;5054144;28;20055;-64
2022/08/13 10:40:45;;;;;;;3.75;2.28;;;26.70;89.00;;;;;;5059713;28;20053;-64
2022/08/13 10:43:11;;;;;;;4.63;2.40;;;26.80;88.80;;;;;;5079814;28;20080;-64
2022/08/13 10:45:40;;;;;;;5.65;2.05;;;26.80;89.00;;;;;;5062819;28;20055;-64
2022/08/13 10:48:11;;;;;;;2.55;2.13;;;26.90;88.70;;;;;;5079264;28;20102;-64
2022/08/13 10:50:37;;;;;;;3.63;2.20;;;26.90;88.20;;;;;;5081686;28;20041;-64
2022/08/13 10:53:03;;;;;;;3.90;2.17;;;27.10;85.70;;;;;;5062650;28;20106;-64
2022/08/13 10:55:30;;;;;;;3.10;2.00;;;27.10;86.80;;;;;;5058969;28;20041;-64
2022/08/13 10:57:55;;;;;;;2.15;1.92;;;27.10;85.80;;;;;;5061124;28;20037;-64
2022/08/13 11:00:21;;;;;;;2.70;2.15;;;27.20;85.30;;;;;;5052480;28;20508;-64
2022/08/13 11:02:49;;;;;;;3.47;1.75;;;27.20;86.00;;;;;;5063010;28;20055;-64
2022/08/13 11:05:16;;;;;;;3.47;1.98;;;27.20;85.20;;;;;;5063311;28;20071;-64
2022/08/13 11:07:47;;;;;;;3.95;1.92;;;27.30;84.40;;;;;;5054913;28;20135;-64
2022/08/13 11:10:13;;;;;;;5.63;1.98;;;27.30;83.50;;;;;;5082067;28;20048;-64
2022/08/13 11:12:42;;;;;;;3.70;1.90;;;27.40;84.00;;;;;;5076822;28;20033;-64
2022/08/13 11:15:08;;;;;;;2.35;2.10;;;27.50;86.00;;;;;;5061357;28;20059;-64
2022/08/13 11:17:35;;;;;;;3.17;2.03;;;27.60;83.30;;;;;;5040615;28;20041;-64
2022/08/13 11:20:05;;;;;;;3.13;2.17;;;27.70;82.70;;;;;;5062321;28;20044;-64
2022/08/13 11:22:32;;;;;;;3.47;2.17;;;27.90;81.70;;;;;;5068370;28;20098;-64
2022/08/13 11:24:59;;;;;;;4.78;2.40;;;27.90;82.10;;;;;;5086342;28;20040;-64
2022/08/13 11:27:25;;;;;;;4.65;2.00;;;27.90;82.80;;;;;;5086042;28;20040;-64
2022/08/13 11:29:54;;;;;;;2.50;1.80;;;27.80;82.10;;;;;;5085186;28;20040;-65
2022/08/13 11:32:20;;;;;;;3.83;2.00;;;27.90;81.30;;;;;;5102275;28;20493;-64
2022/08/13 11:34:46;;;;;;;3.30;2.08;;;27.90;81.20;;;;;;5101224;28;20056;-64
2022/08/13 11:37:12;;;;;;;2.40;1.90;;;27.90;80.20;;;;;;5114283;28;20053;-64
2022/08/13 11:39:38;;;;;;;2.17;1.80;;;27.90;81.20;;;;;;5103376;28;20028;-64
2022/08/13 11:42:04;;;;;;;5.47;2.15;;;27.90;82.00;;;;;;5097850;28;20103;-64
2022/08/13 11:44:30;;;;;;;2.90;2.20;;;28.00;81.10;;;;;;5091031;28;20044;-64
2022/08/13 11:46:55;;;;;;;2.67;2.00;;;28.10;80.50;;;;;;5105174;28;20055;-64
2022/08/13 11:49:21;;;;;;;3.25;2.17;;;28.10;80.00;;;;;;5095716;28;20513;-64
2022/08/13 11:51:48;;;;;;;3.78;2.58;;;28.20;79.50;;;;;;5104981;28;20101;-65
2022/08/13 11:54:14;;;;;;;3.08;2.00;;;28.40;79.00;;;;;;5100252;28;20086;-64
2022/08/13 11:56:40;;;;;;;2.38;1.95;;;28.60;78.70;;;;;;5105861;28;20044;-65
2022/08/13 11:59:06;;;;;;;4.85;2.30;;;28.60;79.00;;;;;;5097174;28;20032;-64
2022/08/13 12:01:32;;;;;;;3.13;1.95;;;28.60;78.50;;;;;;5092282;28;20399;-64
2022/08/13 12:03:57;;;;;;;2.20;2.00;;;28.60;79.80;;;;;;5093906;28;20040;-65
2022/08/13 12:06:23;;;;;;;3.15;2.20;;;28.70;80.80;;;;;;5081536;28;20075;-65
2022/08/13 12:08:49;;;;;;;3.17;2.30;;;28.80;81.60;;;;;;5078579;28;20040;-64
2022/08/13 12:11:15;;;;;;;3.47;2.20;;;28.80;80.60;;;;;;5096510;28;20044;-64
2022/08/13 12:13:41;;;;;;;3.70;2.00;;;28.80;79.40;;;;;;5099782;28;20169;-64
2022/08/13 12:16:06;;;;;;;3.50;2.28;;;28.90;78.30;;;;;;5100614;28;20071;-64
2022/08/13 12:18:32;;;;;;;3.53;2.30;;;28.90;77.50;;;;;;5095321;28;20074;-64
2022/08/13 12:20:58;;;;;;;3.25;2.20;;;29.00;79.00;;;;;;5100567;28;20044;-64
2022/08/13 12:23:24;;;;;;;4.68;2.40;;;29.00;79.30;;;;;;5102017;28;20048;-64
2022/08/13 12:25:49;;;;;;;5.38;2.35;;;29.00;79.10;;;;;;5101940;28;20041;-64
2022/08/13 12:28:17;;;;;;;2.80;2.33;;;28.90;78.30;;;;;;5105139;28;20044;-64
2022/08/13 12:30:45;;;;;;;3.63;2.30;;;28.90;78.20;;;;;;5104214;28;20047;-64
2022/08/13 12:33:10;;;;;;;5.03;2.47;;;29.00;78.20;;;;;;5096936;28;20131;-64
2022/08/13 12:35:36;;;;;;;7.00;2.30;;;29.20;77.60;;;;;;5086079;28;20543;-64
2022/08/13 12:38:11;;;;;;;2.28;2.08;;;29.20;77.70;;;;;;5096643;28;20040;-64
2022/08/13 12:40:37;;;;;;;2.85;2.13;;;29.30;77.30;;;;;;5099608;28;20056;-65
2022/08/13 12:43:04;;;;;;;3.50;2.50;;;29.40;77.70;;;;;;5097242;28;20044;-64
2022/08/13 12:45:31;;;;;;;2.97;2.45;;;29.50;78.60;;;;;;5105081;28;20048;-64
2022/08/13 12:48:05;;;;;;;3.17;2.38;;;29.50;78.50;;;;;;5105060;28;20103;-65
2022/08/13 12:50:31;;;;;;;1.92;1.80;;;29.60;76.50;;;;;;5102421;28;20056;-64
2022/08/13 12:52:57;;;;;;;4.07;2.30;;;29.80;76.70;;;;;;5103142;28;20038;-65
2022/08/13 12:55:22;;;;;;;2.55;2.30;;;30.00;76.30;;;;;;5105565;28;20349;-64
2022/08/13 12:57:48;;;;;;;3.60;2.60;;;30.10;76.60;;;;;;5101315;28;20052;-64
2022/08/13 13:00:14;;;;;;;3.15;1.90;;;30.30;76.60;;;;;;5104758;28;20044;-64